sensor_id;sensor_type;location;lat;lon;timestamp;pressure;altitude;pressure_sealevel;temperature;humidity
9415;BME280;4746;35.664;139.738;2023-09-08T00:01:10;100117.38;;;25.68;66.90
9415;BME280;4746;35.664;139.738;2023-09-08T00:03:38;100128.84;;;25.67;67.15
9415;BME280;4746;35.664;139.738;2023-09-08T00:06:06;100128.88;;;25.66;67.33
9415;BME280;4746;35.664;139.738;2023-09-08T00:08:33;100118.38;;;25.66;67.26
9415;BME280;4746;35.664;139.738;2023-09-08T00:11:01;100117.56;;;25.65;67.28
9415;BME280;4746;35.664;139.738;2023-09-08T00:13:28;100114.09;;;25.65;67.53
9415;BME280;4746;35.664;139.738;2023-09-08T00:15:56;100083.44;;;25.65;67.30
9415;BME280;4746;35.664;139.738;2023-09-08T00:18:23;100075.75;;;25.62;67.16
9415;BME280;4746;35.664;139.738;2023-09-08T00:20:51;100069.81;;;25.59;67.11
9415;BME280;4746;35.664;139.738;2023-09-08T00:23:19;100044.66;;;25.55;67.33
9415;BME280;4746;35.664;139.738;2023-09-08T00:25:46;100027.31;;;25.52;67.46
9415;BME280;4746;35.664;139.738;2023-09-08T00:28:16;100033.81;;;25.45;67.54
9415;BME280;4746;35.664;139.738;2023-09-08T00:30:43;100021.72;;;25.43;67.12
9415;BME280;4746;35.664;139.738;2023-09-08T00:33:10;99982.13;;;25.32;67.37
9415;BME280;4746;35.664;139.738;2023-09-08T00:35:44;99960.41;;;25.30;67.13
9415;BME280;4746;35.664;139.738;2023-09-08T00:38:13;99930.94;;;25.25;67.59
9415;BME280;4746;35.664;139.738;2023-09-08T00:40:41;99888.03;;;25.26;67.48
9415;BME280;4746;35.664;139.738;2023-09-08T00:43:09;99882.97;;;25.23;67.27
9415;BME280;4746;35.664;139.738;2023-09-08T00:45:42;99865.34;;;25.25;67.31
9415;BME280;4746;35.664;139.738;2023-09-08T00:48:13;99819.63;;;25.15;67.56
9415;BME280;4746;35.664;139.738;2023-09-08T00:50:40;99720.22;;;25.11;67.69
9415;BME280;4746;35.664;139.738;2023-09-08T00:53:11;99754.56;;;25.06;67.89
9415;BME280;4746;35.664;139.738;2023-09-08T00:55:41;99727.19;;;24.96;67.81
9415;BME280;4746;35.664;139.738;2023-09-08T00:58:11;99726.03;;;24.86;68.52
9415;BME280;4746;35.664;139.738;2023-09-08T01:00:38;99726.75;;;24.74;69.03
9415;BME280;4746;35.664;139.738;2023-09-08T01:03:06;99717.41;;;24.70;69.42
9415;BME280;4746;35.664;139.738;2023-09-08T01:05:34;99713.09;;;24.69;69.75
9415;BME280;4746;35.664;139.738;2023-09-08T01:08:03;99686.75;;;24.57;70.34
9415;BME280;4746;35.664;139.738;2023-09-08T01:10:31;99696.16;;;24.46;71.11
9415;BME280;4746;35.664;139.738;2023-09-08T01:12:59;99709.00;;;24.50;70.85
9415;BME280;4746;35.664;139.738;2023-09-08T01:15:26;99730.75;;;24.66;70.62
9415;BME280;4746;35.664;139.738;2023-09-08T01:17:54;99786.13;;;24.75;70.74
9415;BME280;4746;35.664;139.738;2023-09-08T01:21:07;99847.31;;;24.74;70.97
9415;BME280;4746;35.664;139.738;2023-09-08T01:26:41;99870.31;;;25.00;70.76
9415;BME280;4746;35.664;139.738;2023-09-08T01:29:10;99897.00;;;25.07;70.57
9415;BME280;4746;35.664;139.738;2023-09-08T01:31:40;99902.13;;;25.10;70.39
9415;BME280;4746;35.664;139.738;2023-09-08T01:34:11;99888.38;;;25.20;70.50
9415;BME280;4746;35.664;139.738;2023-09-08T01:36:39;99888.84;;;25.13;71.17
9415;BME280;4746;35.664;139.738;2023-09-08T01:39:06;99908.00;;;25.28;70.58
9415;BME280;4746;35.664;139.738;2023-09-08T01:41:34;99887.31;;;25.38;70.45
9415;BME280;4746;35.664;139.738;2023-09-08T01:44:02;99889.34;;;25.48;70.08
9415;BME280;4746;35.664;139.738;2023-09-08T01:46:35;99910.66;;;25.58;69.89
9415;BME280;4746;35.664;139.738;2023-09-08T01:49:02;99902.88;;;25.56;70.07
9415;BME280;4746;35.664;139.738;2023-09-08T01:51:30;99906.13;;;25.60;70.13
9415;BME280;4746;35.664;139.738;2023-09-08T01:53:57;99895.19;;;25.67;69.72
9415;BME280;4746;35.664;139.738;2023-09-08T01:56:25;99886.31;;;25.70;69.50
9415;BME280;4746;35.664;139.738;2023-09-08T01:58:53;99872.16;;;25.72;69.63
9415;BME280;4746;35.664;139.738;2023-09-08T02:01:20;99855.78;;;25.83;69.65
9415;BME280;4746;35.664;139.738;2023-09-08T02:03:48;99855.44;;;25.89;69.24
9415;BME280;4746;35.664;139.738;2023-09-08T02:06:16;99864.41;;;25.98;69.15
9415;BME280;4746;35.664;139.738;2023-09-08T02:08:44;99849.97;;;26.05;69.24
9415;BME280;4746;35.664;139.738;2023-09-08T02:11:11;99834.88;;;26.09;68.46
9415;BME280;4746;35.664;139.738;2023-09-08T02:13:42;99840.38;;;26.18;68.70
9415;BME280;4746;35.664;139.738;2023-09-08T02:16:15;99842.44;;;26.27;68.40
9415;BME280;4746;35.664;139.738;2023-09-08T02:18:44;99840.38;;;26.32;68.08
9415;BME280;4746;35.664;139.738;2023-09-08T02:21:12;99858.59;;;26.35;67.72
9415;BME280;4746;35.664;139.738;2023-09-08T02:23:39;99870.91;;;26.49;67.74
9415;BME280;4746;35.664;139.738;2023-09-08T02:26:07;99853.22;;;26.51;67.55
9415;BME280;4746;35.664;139.738;2023-09-08T02:28:34;99843.56;;;26.51;67.59
9415;BME280;4746;35.664;139.738;2023-09-08T02:31:02;99850.13;;;26.58;67.32
9415;BME280;4746;35.664;139.738;2023-09-08T02:33:29;99856.63;;;26.53;67.68
9415;BME280;4746;35.664;139.738;2023-09-08T02:36:05;99834.53;;;26.55;67.62
9415;BME280;4746;35.664;139.738;2023-09-08T02:38:33;99825.91;;;26.53;67.32
9415;BME280;4746;35.664;139.738;2023-09-08T02:41:01;99826.47;;;26.58;67.15
9415;BME280;4746;35.664;139.738;2023-09-08T02:43:28;99822.69;;;26.62;67.51
9415;BME280;4746;35.664;139.738;2023-09-08T02:45:56;99811.44;;;26.60;67.06
9415;BME280;4746;35.664;139.738;2023-09-08T02:48:24;99836.75;;;26.75;66.63
9415;BME280;4746;35.664;139.738;2023-09-08T02:50:52;99838.53;;;26.74;66.39
9415;BME280;4746;35.664;139.738;2023-09-08T02:53:20;99817.41;;;26.76;66.48
9415;BME280;4746;35.664;139.738;2023-09-08T02:55:48;99807.63;;;26.78;66.26
9415;BME280;4746;35.664;139.738;2023-09-08T02:58:15;99789.75;;;26.83;66.10
9415;BME280;4746;35.664;139.738;2023-09-08T03:00:43;99818.59;;;26.84;66.03
9415;BME280;4746;35.664;139.738;2023-09-08T03:03:10;99810.72;;;26.84;66.01
9415;BME280;4746;35.664;139.738;2023-09-08T03:05:38;99804.59;;;26.84;65.97
9415;BME280;4746;35.664;139.738;2023-09-08T03:08:06;99785.47;;;26.82;66.04
9415;BME280;4746;35.664;139.738;2023-09-08T03:10:34;99773.03;;;26.84;66.37
9415;BME280;4746;35.664;139.738;2023-09-08T03:13:06;99769.28;;;26.88;66.06
9415;BME280;4746;35.664;139.738;2023-09-08T03:15:35;99766.44;;;26.91;66.37
9415;BME280;4746;35.664;139.738;2023-09-08T03:18:03;99758.13;;;26.97;65.95
9415;BME280;4746;35.664;139.738;2023-09-08T03:20:30;99735.88;;;27.02;66.69
9415;BME280;4746;35.664;139.738;2023-09-08T03:22:58;99710.50;;;27.14;66.25
9415;BME280;4746;35.664;139.738;2023-09-08T03:25:26;99708.94;;;27.24;66.11
9415;BME280;4746;35.664;139.738;2023-09-08T03:27:53;99711.38;;;27.27;66.25
9415;BME280;4746;35.664;139.738;2023-09-08T03:30:21;99714.00;;;27.27;66.42
9415;BME280;4746;35.664;139.738;2023-09-08T03:32:48;99720.94;;;27.28;66.14
9415;BME280;4746;35.664;139.738;2023-09-08T03:35:16;99723.88;;;27.23;66.50
9415;BME280;4746;35.664;139.738;2023-09-08T03:37:43;99726.63;;;27.34;66.58
9415;BME280;4746;35.664;139.738;2023-09-08T03:40:11;99718.19;;;27.41;65.98
9415;BME280;4746;35.664;139.738;2023-09-08T03:42:38;99723.03;;;27.47;66.49
9415;BME280;4746;35.664;139.738;2023-09-08T03:45:08;99706.41;;;27.59;66.18
9415;BME280;4746;35.664;139.738;2023-09-08T03:47:36;99676.94;;;27.67;66.16
9415;BME280;4746;35.664;139.738;2023-09-08T03:50:04;99663.22;;;27.74;65.99
9415;BME280;4746;35.664;139.738;2023-09-08T03:52:33;99663.63;;;27.81;66.19
9415;BME280;4746;35.664;139.738;2023-09-08T03:55:00;99649.63;;;27.80;66.20
9415;BME280;4746;35.664;139.738;2023-09-08T03:57:28;99655.16;;;27.88;66.16
9415;BME280;4746;35.664;139.738;2023-09-08T03:59:55;99658.31;;;27.93;66.15
9415;BME280;4746;35.664;139.738;2023-09-08T04:02:23;99653.78;;;27.95;66.03
9415;BME280;4746;35.664;139.738;2023-09-08T04:04:57;99650.88;;;27.87;66.18
9415;BME280;4746;35.664;139.738;2023-09-08T04:07:25;99649.25;;;27.85;67.04
9415;BME280;4746;35.664;139.738;2023-09-08T04:09:52;99637.84;;;27.97;66.55
9415;BME280;4746;35.664;139.738;2023-09-08T04:12:20;99634.53;;;27.82;67.16
9415;BME280;4746;35.664;139.738;2023-09-08T04:14:47;99617.06;;;27.81;66.79
9415;BME280;4746;35.664;139.738;2023-09-08T04:17:16;99619.69;;;27.81;67.16
9415;BME280;4746;35.664;139.738;2023-09-08T04:19:43;99621.78;;;27.76;67.01
9415;BME280;4746;35.664;139.738;2023-09-08T04:22:11;99596.97;;;27.68;67.54
9415;BME280;4746;35.664;139.738;2023-09-08T04:24:39;99618.16;;;27.66;68.13
9415;BME280;4746;35.664;139.738;2023-09-08T04:27:07;99608.06;;;27.60;67.30
9415;BME280;4746;35.664;139.738;2023-09-08T04:29:38;99603.44;;;27.51;67.78
9415;BME280;4746;35.664;139.738;2023-09-08T04:32:07;99622.19;;;27.47;67.56
9415;BME280;4746;35.664;139.738;2023-09-08T04:34:42;99592.34;;;27.46;67.96
9415;BME280;4746;35.664;139.738;2023-09-08T04:37:10;99617.47;;;27.39;68.21
9415;BME280;4746;35.664;139.738;2023-09-08T04:39:37;99613.34;;;27.36;68.75
9415;BME280;4746;35.664;139.738;2023-09-08T04:42:06;99626.84;;;27.31;68.90
9415;BME280;4746;35.664;139.738;2023-09-08T04:44:34;99638.44;;;27.29;69.26
9415;BME280;4746;35.664;139.738;2023-09-08T04:47:11;99624.53;;;27.27;69.33
9415;BME280;4746;35.664;139.738;2023-09-08T04:49:39;99636.75;;;27.28;69.08
9415;BME280;4746;35.664;139.738;2023-09-08T04:52:06;99635.25;;;27.24;69.21
9415;BME280;4746;35.664;139.738;2023-09-08T04:54:34;99635.69;;;27.30;69.72
9415;BME280;4746;35.664;139.738;2023-09-08T04:57:02;99643.78;;;27.39;69.27
9415;BME280;4746;35.664;139.738;2023-09-08T04:59:30;99646.28;;;27.41;68.71
9415;BME280;4746;35.664;139.738;2023-09-08T05:01:58;99629.88;;;27.38;68.68
9415;BME280;4746;35.664;139.738;2023-09-08T05:04:26;99631.06;;;27.34;68.99
9415;BME280;4746;35.664;139.738;2023-09-08T05:06:55;99623.16;;;27.34;68.80
9415;BME280;4746;35.664;139.738;2023-09-08T05:09:23;99618.09;;;27.31;69.14
9415;BME280;4746;35.664;139.738;2023-09-08T05:11:50;99619.03;;;27.30;69.11
9415;BME280;4746;35.664;139.738;2023-09-08T05:14:18;99613.69;;;27.31;69.20
9415;BME280;4746;35.664;139.738;2023-09-08T05:16:46;99624.94;;;27.33;69.18
9415;BME280;4746;35.664;139.738;2023-09-08T05:19:16;99615.25;;;27.34;69.23
9415;BME280;4746;35.664;139.738;2023-09-08T05:21:44;99618.84;;;27.33;69.37
9415;BME280;4746;35.664;139.738;2023-09-08T05:24:12;99622.63;;;27.29;69.62
9415;BME280;4746;35.664;139.738;2023-09-08T05:26:42;99615.56;;;27.29;69.63
9415;BME280;4746;35.664;139.738;2023-09-08T05:29:10;99616.50;;;27.28;69.58
9415;BME280;4746;35.664;139.738;2023-09-08T05:31:37;99607.44;;;27.32;70.02
9415;BME280;4746;35.664;139.738;2023-09-08T05:34:05;99625.28;;;27.29;70.01
9415;BME280;4746;35.664;139.738;2023-09-08T05:36:33;99628.19;;;27.37;69.87
9415;BME280;4746;35.664;139.738;2023-09-08T05:39:04;99624.84;;;27.35;69.64
9415;BME280;4746;35.664;139.738;2023-09-08T05:41:32;99632.00;;;27.33;69.89
9415;BME280;4746;35.664;139.738;2023-09-08T05:44:01;99643.47;;;27.32;69.75
9415;BME280;4746;35.664;139.738;2023-09-08T05:46:29;99643.25;;;27.35;70.22
9415;BME280;4746;35.664;139.738;2023-09-08T05:48:57;99631.88;;;27.34;69.72
9415;BME280;4746;35.664;139.738;2023-09-08T05:51:28;99643.25;;;27.35;69.83
9415;BME280;4746;35.664;139.738;2023-09-08T05:53:57;99640.72;;;27.33;69.56
9415;BME280;4746;35.664;139.738;2023-09-08T05:56:31;99642.09;;;27.38;69.80
9415;BME280;4746;35.664;139.738;2023-09-08T05:58:59;99639.03;;;27.32;69.96
9415;BME280;4746;35.664;139.738;2023-09-08T06:01:29;99631.06;;;27.34;70.06
9415;BME280;4746;35.664;139.738;2023-09-08T06:03:57;99615.88;;;27.37;70.30
9415;BME280;4746;35.664;139.738;2023-09-08T06:06:24;99622.38;;;27.44;70.10
9415;BME280;4746;35.664;139.738;2023-09-08T06:08:55;99623.94;;;27.46;70.02
9415;BME280;4746;35.664;139.738;2023-09-08T06:11:23;99631.13;;;27.44;70.42
9415;BME280;4746;35.664;139.738;2023-09-08T06:13:51;99630.28;;;27.44;70.05
9415;BME280;4746;35.664;139.738;2023-09-08T06:16:19;99620.81;;;27.41;70.15
9415;BME280;4746;35.664;139.738;2023-09-08T06:18:47;99618.41;;;27.38;70.96
9415;BME280;4746;35.664;139.738;2023-09-08T06:21:16;99620.28;;;27.37;70.95
9415;BME280;4746;35.664;139.738;2023-09-08T06:23:44;99628.63;;;27.31;71.13
9415;BME280;4746;35.664;139.738;2023-09-08T06:26:12;99628.50;;;27.32;70.69
9415;BME280;4746;35.664;139.738;2023-09-08T06:28:39;99625.28;;;27.29;71.06
9415;BME280;4746;35.664;139.738;2023-09-08T06:31:10;99628.22;;;27.24;70.84
9415;BME280;4746;35.664;139.738;2023-09-08T06:33:38;99631.03;;;27.21;70.92
9415;BME280;4746;35.664;139.738;2023-09-08T06:36:06;99624.97;;;27.21;70.77
9415;BME280;4746;35.664;139.738;2023-09-08T06:38:35;99622.53;;;27.18;70.80
9415;BME280;4746;35.664;139.738;2023-09-08T06:41:09;99616.81;;;27.24;70.47
9415;BME280;4746;35.664;139.738;2023-09-08T06:43:38;99610.22;;;27.18;70.56
9415;BME280;4746;35.664;139.738;2023-09-08T06:46:05;99616.53;;;27.16;70.96
9415;BME280;4746;35.664;139.738;2023-09-08T06:48:33;99604.34;;;27.15;70.54
9415;BME280;4746;35.664;139.738;2023-09-08T06:51:01;99619.38;;;27.13;71.04
9415;BME280;4746;35.664;139.738;2023-09-08T06:53:28;99633.69;;;27.09;71.05
9415;BME280;4746;35.664;139.738;2023-09-08T06:55:57;99629.38;;;27.08;70.76
9415;BME280;4746;35.664;139.738;2023-09-08T06:58:25;99627.69;;;27.07;70.73
9415;BME280;4746;35.664;139.738;2023-09-08T07:00:53;99625.47;;;27.01;71.30
9415;BME280;4746;35.664;139.738;2023-09-08T07:03:22;99626.72;;;26.95;71.30
9415;BME280;4746;35.664;139.738;2023-09-08T07:05:50;99626.41;;;27.00;71.26
9415;BME280;4746;35.664;139.738;2023-09-08T07:08:18;99629.06;;;27.00;71.28
9415;BME280;4746;35.664;139.738;2023-09-08T07:10:51;99646.63;;;26.99;71.39
9415;BME280;4746;35.664;139.738;2023-09-08T07:13:21;99636.13;;;26.99;70.89
9415;BME280;4746;35.664;139.738;2023-09-08T07:15:48;99635.22;;;26.86;71.50
9415;BME280;4746;35.664;139.738;2023-09-08T07:18:16;99628.84;;;26.90;71.54
9415;BME280;4746;35.664;139.738;2023-09-08T07:20:47;99630.81;;;26.87;71.64
9415;BME280;4746;35.664;139.738;2023-09-08T07:23:18;99636.38;;;26.95;71.49
9415;BME280;4746;35.664;139.738;2023-09-08T07:25:49;99638.19;;;26.94;70.99
9415;BME280;4746;35.664;139.738;2023-09-08T07:28:17;99619.56;;;26.85;71.28
9415;BME280;4746;35.664;139.738;2023-09-08T07:30:45;99634.50;;;26.84;71.19
9415;BME280;4746;35.664;139.738;2023-09-08T07:33:12;99626.81;;;26.81;71.13
9415;BME280;4746;35.664;139.738;2023-09-08T07:35:42;99614.59;;;26.68;71.66
9415;BME280;4746;35.664;139.738;2023-09-08T07:38:09;99623.66;;;26.64;71.99
9415;BME280;4746;35.664;139.738;2023-09-08T07:40:39;99616.50;;;26.66;71.36
9415;BME280;4746;35.664;139.738;2023-09-08T07:43:08;99629.31;;;26.58;71.96
9415;BME280;4746;35.664;139.738;2023-09-08T07:45:37;99627.22;;;26.63;71.68
9415;BME280;4746;35.664;139.738;2023-09-08T07:48:07;99624.91;;;26.71;71.41
9415;BME280;4746;35.664;139.738;2023-09-08T07:50:35;99620.06;;;26.65;71.57
9415;BME280;4746;35.664;139.738;2023-09-08T07:53:03;99617.53;;;26.51;71.63
9415;BME280;4746;35.664;139.738;2023-09-08T07:55:30;99604.81;;;26.45;72.03
9415;BME280;4746;35.664;139.738;2023-09-08T07:58:00;99592.72;;;26.43;71.80
9415;BME280;4746;35.664;139.738;2023-09-08T08:00:28;99594.81;;;26.38;72.05
9415;BME280;4746;35.664;139.738;2023-09-08T08:02:58;99620.31;;;26.36;72.17
9415;BME280;4746;35.664;139.738;2023-09-08T08:05:26;99613.66;;;26.30;71.88
9415;BME280;4746;35.664;139.738;2023-09-08T08:07:53;99631.59;;;26.38;71.55
9415;BME280;4746;35.664;139.738;2023-09-08T08:10:21;99633.38;;;26.37;71.87
9415;BME280;4746;35.664;139.738;2023-09-08T08:12:49;99627.16;;;26.38;71.96
9415;BME280;4746;35.664;139.738;2023-09-08T08:15:18;99644.63;;;26.39;72.11
9415;BME280;4746;35.664;139.738;2023-09-08T08:17:46;99646.09;;;26.43;72.09
9415;BME280;4746;35.664;139.738;2023-09-08T08:20:13;99651.34;;;26.43;71.87
9415;BME280;4746;35.664;139.738;2023-09-08T08:22:47;99648.44;;;26.48;71.80
9415;BME280;4746;35.664;139.738;2023-09-08T08:25:15;99655.56;;;26.46;71.75
9415;BME280;4746;35.664;139.738;2023-09-08T08:27:42;99658.31;;;26.44;72.05
9415;BME280;4746;35.664;139.738;2023-09-08T08:30:10;99652.28;;;26.42;72.23
9415;BME280;4746;35.664;139.738;2023-09-08T08:32:38;99651.56;;;26.40;72.04
9415;BME280;4746;35.664;139.738;2023-09-08T08:35:06;99661.88;;;26.43;72.16
9415;BME280;4746;35.664;139.738;2023-09-08T08:37:34;99665.25;;;26.45;72.56
9415;BME280;4746;35.664;139.738;2023-09-08T08:40:01;99641.72;;;26.44;72.12
9415;BME280;4746;35.664;139.738;2023-09-08T08:42:34;99653.03;;;26.44;71.95
9415;BME280;4746;35.664;139.738;2023-09-08T08:45:01;99675.31;;;26.39;72.24
9415;BME280;4746;35.664;139.738;2023-09-08T08:47:31;99668.38;;;26.38;72.07
9415;BME280;4746;35.664;139.738;2023-09-08T08:50:00;99666.59;;;26.38;72.03
9415;BME280;4746;35.664;139.738;2023-09-08T08:52:30;99662.28;;;26.37;72.35
9415;BME280;4746;35.664;139.738;2023-09-08T08:54:59;99655.41;;;26.35;72.20
9415;BME280;4746;35.664;139.738;2023-09-08T08:57:27;99668.53;;;26.35;72.46
9415;BME280;4746;35.664;139.738;2023-09-08T08:59:55;99653.00;;;26.32;72.17
9415;BME280;4746;35.664;139.738;2023-09-08T09:02:26;99651.94;;;26.34;72.30
9415;BME280;4746;35.664;139.738;2023-09-08T09:04:55;99647.09;;;26.28;72.33
9415;BME280;4746;35.664;139.738;2023-09-08T09:07:23;99641.09;;;26.26;72.10
9415;BME280;4746;35.664;139.738;2023-09-08T09:09:53;99627.31;;;26.23;72.15
9415;BME280;4746;35.664;139.738;2023-09-08T09:12:27;99629.00;;;26.24;72.18
9415;BME280;4746;35.664;139.738;2023-09-08T09:15:15;99620.34;;;26.22;72.34
9415;BME280;4746;35.664;139.738;2023-09-08T09:18:04;99606.41;;;26.21;72.32
9415;BME280;4746;35.664;139.738;2023-09-08T09:20:59;99611.09;;;26.16;72.41
9415;BME280;4746;35.664;139.738;2023-09-08T09:26:28;99616.22;;;26.05;72.74
9415;BME280;4746;35.664;139.738;2023-09-08T09:28:59;99626.16;;;26.00;72.93
9415;BME280;4746;35.664;139.738;2023-09-08T09:32:07;99635.53;;;26.04;72.36
9415;BME280;4746;35.664;139.738;2023-09-08T09:34:59;99631.41;;;26.00;73.28
9415;BME280;4746;35.664;139.738;2023-09-08T09:37:41;99648.84;;;26.01;72.95
9415;BME280;4746;35.664;139.738;2023-09-08T09:40:46;99664.63;;;26.01;72.76
9415;BME280;4746;35.664;139.738;2023-09-08T09:43:16;99675.34;;;25.98;73.17
9415;BME280;4746;35.664;139.738;2023-09-08T09:46:07;99679.25;;;26.05;72.96
9415;BME280;4746;35.664;139.738;2023-09-08T09:49:15;99680.91;;;26.06;73.09
9415;BME280;4746;35.664;139.738;2023-09-08T09:51:52;99697.81;;;26.02;73.40
9415;BME280;4746;35.664;139.738;2023-09-08T09:54:30;99706.63;;;26.01;73.53
9415;BME280;4746;35.664;139.738;2023-09-08T09:57:21;99709.63;;;26.09;73.05
9415;BME280;4746;35.664;139.738;2023-09-08T09:59:53;99719.00;;;26.13;72.61
9415;BME280;4746;35.664;139.738;2023-09-08T10:02:31;99720.03;;;26.11;72.75
9415;BME280;4746;35.664;139.738;2023-09-08T10:08:21;99720.91;;;26.11;72.30
9415;BME280;4746;35.664;139.738;2023-09-08T10:10:53;99716.75;;;26.07;72.81
9415;BME280;4746;35.664;139.738;2023-09-08T10:16:46;99709.81;;;26.06;72.87
9415;BME280;4746;35.664;139.738;2023-09-08T10:19:23;99714.88;;;26.09;72.48
9415;BME280;4746;35.664;139.738;2023-09-08T10:25:16;99716.97;;;26.04;72.96
9415;BME280;4746;35.664;139.738;2023-09-08T10:28:12;99711.50;;;26.07;72.82
9415;BME280;4746;35.664;139.738;2023-09-08T10:30:51;99710.78;;;26.05;72.93
9415;BME280;4746;35.664;139.738;2023-09-08T10:36:43;99712.75;;;26.02;73.04
9415;BME280;4746;35.664;139.738;2023-09-08T10:39:54;99713.19;;;26.08;72.92
9415;BME280;4746;35.664;139.738;2023-09-08T10:42:28;99714.63;;;26.00;73.17
9415;BME280;4746;35.664;139.738;2023-09-08T10:45:20;99712.25;;;26.09;72.92
9415;BME280;4746;35.664;139.738;2023-09-08T10:47:57;99700.44;;;26.16;72.61
9415;BME280;4746;35.664;139.738;2023-09-08T10:50:34;99696.41;;;26.11;73.15
9415;BME280;4746;35.664;139.738;2023-09-08T10:53:16;99700.81;;;26.10;73.10
9415;BME280;4746;35.664;139.738;2023-09-08T10:55:52;99701.91;;;26.20;72.65
9415;BME280;4746;35.664;139.738;2023-09-08T10:58:37;99696.25;;;26.26;72.62
9415;BME280;4746;35.664;139.738;2023-09-08T11:02:03;99697.00;;;26.28;72.42
9415;BME280;4746;35.664;139.738;2023-09-08T11:05:12;99704.91;;;26.28;72.62
9415;BME280;4746;35.664;139.738;2023-09-08T11:15:14;99717.50;;;26.23;72.82
9415;BME280;4746;35.664;139.738;2023-09-08T11:18:13;99720.00;;;26.25;72.74
9415;BME280;4746;35.664;139.738;2023-09-08T11:21:32;99713.88;;;26.24;73.01
9415;BME280;4746;35.664;139.738;2023-09-08T11:27:43;99724.22;;;26.27;72.95
9415;BME280;4746;35.664;139.738;2023-09-08T11:30:26;99722.34;;;26.29;73.34
9415;BME280;4746;35.664;139.738;2023-09-08T11:36:46;99738.47;;;26.37;72.79
9415;BME280;4746;35.664;139.738;2023-09-08T11:39:47;99743.81;;;26.36;73.07
9415;BME280;4746;35.664;139.738;2023-09-08T11:42:36;99750.09;;;26.33;73.09
9415;BME280;4746;35.664;139.738;2023-09-08T11:45:17;99739.59;;;26.33;73.45
9415;BME280;4746;35.664;139.738;2023-09-08T11:48:17;99726.75;;;26.43;72.66
9415;BME280;4746;35.664;139.738;2023-09-08T11:50:59;99724.28;;;26.40;72.89
9415;BME280;4746;35.664;139.738;2023-09-08T11:53:32;99726.22;;;26.50;72.64
9415;BME280;4746;35.664;139.738;2023-09-08T11:56:03;99720.75;;;26.53;72.77
9415;BME280;4746;35.664;139.738;2023-09-08T11:58:48;99719.34;;;26.62;72.32
9415;BME280;4746;35.664;139.738;2023-09-08T12:01:28;99707.44;;;26.56;72.57
9415;BME280;4746;35.664;139.738;2023-09-08T12:04:02;99718.88;;;26.55;72.53
9415;BME280;4746;35.664;139.738;2023-09-08T12:06:59;99722.19;;;26.45;73.21
9415;BME280;4746;35.664;139.738;2023-09-08T12:09:27;99711.91;;;26.42;72.97
9415;BME280;4746;35.664;139.738;2023-09-08T12:12:55;99722.66;;;26.51;72.97
9415;BME280;4746;35.664;139.738;2023-09-08T12:15:45;99723.84;;;26.60;72.27
9415;BME280;4746;35.664;139.738;2023-09-08T12:18:37;99731.88;;;26.44;73.09
9415;BME280;4746;35.664;139.738;2023-09-08T12:21:06;99723.66;;;26.36;73.58
9415;BME280;4746;35.664;139.738;2023-09-08T12:23:47;99727.13;;;26.63;71.98
9415;BME280;4746;35.664;139.738;2023-09-08T12:26:16;99728.34;;;26.58;72.40
9415;BME280;4746;35.664;139.738;2023-09-08T12:28:46;99719.41;;;26.60;72.48
9415;BME280;4746;35.664;139.738;2023-09-08T12:31:18;99722.69;;;26.64;72.53
9415;BME280;4746;35.664;139.738;2023-09-08T12:33:46;99728.88;;;26.63;72.14
9415;BME280;4746;35.664;139.738;2023-09-08T12:36:19;99733.03;;;26.67;72.09
9415;BME280;4746;35.664;139.738;2023-09-08T12:38:52;99726.81;;;26.67;72.36
9415;BME280;4746;35.664;139.738;2023-09-08T12:41:20;99740.16;;;26.65;72.16
9415;BME280;4746;35.664;139.738;2023-09-08T12:43:48;99732.16;;;26.66;72.19
9415;BME280;4746;35.664;139.738;2023-09-08T12:46:18;99727.78;;;26.67;71.85
9415;BME280;4746;35.664;139.738;2023-09-08T12:48:46;99716.38;;;26.66;71.68
9415;BME280;4746;35.664;139.738;2023-09-08T12:51:14;99698.09;;;26.65;72.01
9415;BME280;4746;35.664;139.738;2023-09-08T12:53:42;99688.41;;;26.65;71.80
9415;BME280;4746;35.664;139.738;2023-09-08T12:56:10;99687.47;;;26.66;71.89
9415;BME280;4746;35.664;139.738;2023-09-08T12:58:38;99686.66;;;26.66;72.16
9415;BME280;4746;35.664;139.738;2023-09-08T13:01:06;99689.47;;;26.63;72.18
9415;BME280;4746;35.664;139.738;2023-09-08T13:03:34;99671.91;;;26.63;72.20
9415;BME280;4746;35.664;139.738;2023-09-08T13:06:05;99684.00;;;26.66;72.07
9415;BME280;4746;35.664;139.738;2023-09-08T13:08:34;99675.19;;;26.67;72.03
9415;BME280;4746;35.664;139.738;2023-09-08T13:11:02;99691.78;;;26.67;72.21
9415;BME280;4746;35.664;139.738;2023-09-08T13:13:30;99683.91;;;26.67;72.08
9415;BME280;4746;35.664;139.738;2023-09-08T13:15:58;99689.91;;;26.69;71.99
9415;BME280;4746;35.664;139.738;2023-09-08T13:18:26;99690.63;;;26.71;71.81
9415;BME280;4746;35.664;139.738;2023-09-08T13:20:56;99692.22;;;26.73;71.79
9415;BME280;4746;35.664;139.738;2023-09-08T13:23:25;99693.81;;;26.76;71.64
9415;BME280;4746;35.664;139.738;2023-09-08T13:25:56;99698.13;;;26.77;72.02
9415;BME280;4746;35.664;139.738;2023-09-08T13:28:24;99699.09;;;26.76;72.01
9415;BME280;4746;35.664;139.738;2023-09-08T13:30:54;99699.63;;;26.81;71.84
9415;BME280;4746;35.664;139.738;2023-09-08T13:33:22;99699.41;;;26.84;71.60
9415;BME280;4746;35.664;139.738;2023-09-08T13:35:52;99698.69;;;26.82;71.20
9415;BME280;4746;35.664;139.738;2023-09-08T13:38:26;99692.91;;;26.89;71.38
9415;BME280;4746;35.664;139.738;2023-09-08T13:40:54;99697.41;;;26.87;71.42
9415;BME280;4746;35.664;139.738;2023-09-08T13:43:27;99695.22;;;26.94;71.06
9415;BME280;4746;35.664;139.738;2023-09-08T13:46:24;99691.53;;;26.96;71.18
9415;BME280;4746;35.664;139.738;2023-09-08T13:48:52;99693.53;;;26.93;71.24
9415;BME280;4746;35.664;139.738;2023-09-08T13:51:20;99690.16;;;26.91;71.13
9415;BME280;4746;35.664;139.738;2023-09-08T13:53:48;99694.38;;;26.93;71.35
9415;BME280;4746;35.664;139.738;2023-09-08T13:56:19;99689.09;;;26.93;71.16
9415;BME280;4746;35.664;139.738;2023-09-08T13:58:51;99689.56;;;27.00;71.25